Time;durP1;ratioP1;P1;durP2;ratioP2;P2;SDS_P1;SDS_P2;PMS_P1;PMS_P2;Temp;Humidity;BMP_temperature;BMP_pressure;BME280_temperature;BME280_humidity;BME280_pressure;Samples;Min_cycle;Max_cycle;Signal;HPM_P1;HPM_P2
2021/05/22 00:01:16;;;;;;;4.63;2.73;;;;;;;10.51;100.00;96757.44;4958210;28;20217;-96
2021/05/22 00:03:43;;;;;;;3.03;2.77;;;;;;;10.63;100.00;96779.09;4958468;29;20258;-96
2021/05/22 00:06:11;;;;;;;4.03;3.63;;;;;;;10.83;100.00;96775.38;4958303;28;20285;-95
2021/05/22 00:08:38;;;;;;;3.50;3.27;;;;;;;10.76;100.00;96708.59;4957338;28;20202;-96
2021/05/22 00:11:05;;;;;;;2.90;2.70;;;;;;;10.62;100.00;96694.16;4957973;28;20285;-96
2021/05/22 00:13:32;;;;;;;3.20;2.90;;;;;;;10.36;100.00;96736.09;4959000;29;20206;-95
2021/05/22 00:15:59;;;;;;;4.83;3.17;;;;;;;9.90;100.00;96771.03;4961124;29;20204;-96
2021/05/22 00:18:26;;;;;;;3.90;3.60;;;;;;;9.45;100.00;96816.25;4957356;28;20202;-94
2021/05/22 00:20:53;;;;;;;3.00;2.80;;;;;;;9.47;100.00;96851.91;4961345;28;20197;-96
2021/05/22 00:23:20;;;;;;;6.67;4.70;;;;;;;9.57;100.00;96862.41;4962808;28;20549;-94
2021/05/22 00:25:47;;;;;;;4.33;3.97;;;;;;;9.77;100.00;96866.69;4958195;28;20229;-93
2021/05/22 00:28:15;;;;;;;3.27;3.03;;;;;;;9.65;100.00;96838.91;4959349;28;20213;-96
2021/05/22 00:30:42;;;;;;;4.03;3.13;;;;;;;9.57;100.00;96840.59;4960661;28;20202;-96
2021/05/22 00:33:09;;;;;;;3.30;3.00;;;;;;;9.64;100.00;96844.31;4962292;28;20201;-95
2021/05/22 00:35:36;;;;;;;4.57;3.10;;;;;;;9.94;100.00;96838.03;4962599;28;20198;-96
2021/05/22 00:38:02;;;;;;;3.50;3.17;;;;;;;9.84;100.00;96824.13;4957259;28;20210;-96
2021/05/22 00:40:30;;;;;;;3.57;3.13;;;;;;;9.97;100.00;96825.47;4957017;28;20201;-94
2021/05/22 00:42:56;;;;;;;5.57;3.83;;;;;;;9.81;100.00;96833.09;4956894;28;20201;-94
2021/05/22 00:45:25;;;;;;;6.00;3.30;;;;;;;10.05;100.00;96834.47;4956675;28;20246;-95
2021/05/22 00:47:55;;;;;;;3.40;3.17;;;;;;;10.28;100.00;96841.03;4956815;29;20256;-95
2021/05/22 00:50:26;;;;;;;3.40;3.10;;;;;;;10.22;100.00;96845.06;4956770;29;20256;-95
2021/05/22 00:52:54;;;;;;;3.33;3.03;;;;;;;10.18;100.00;96898.84;4956849;28;20222;-95
2021/05/22 00:55:23;;;;;;;3.37;3.07;;;;;;;10.31;100.00;96931.91;4956447;28;20256;-96
2021/05/22 00:57:50;;;;;;;3.97;3.67;;;;;;;10.04;100.00;96933.41;4956364;28;20198;-94
2021/05/22 01:00:19;;;;;;;3.57;3.30;;;;;;;9.95;100.00;96979.72;4956695;29;20198;-95
2021/05/22 01:02:48;;;;;;;3.30;3.10;;;;;;;9.84;100.00;96979.84;4956397;28;20198;-93
2021/05/22 01:05:16;;;;;;;3.50;3.20;;;;;;;10.11;100.00;96996.72;4956219;28;20230;-95
2021/05/22 01:07:47;;;;;;;3.83;3.53;;;;;;;10.14;100.00;96984.13;4956289;29;20202;-96
2021/05/22 01:10:16;;;;;;;3.20;2.90;;;;;;;10.04;100.00;96985.94;4956310;29;20278;-95
2021/05/22 01:12:48;;;;;;;3.33;3.03;;;;;;;10.16;100.00;96990.09;4956464;29;20190;-94
2021/05/22 01:15:19;;;;;;;2.90;2.70;;;;;;;10.26;100.00;96992.75;4956394;29;20245;-95
2021/05/22 01:17:49;;;;;;;3.27;3.07;;;;;;;10.10;100.00;96985.38;4956658;29;20187;-95
2021/05/22 01:20:31;;;;;;;3.10;2.90;;;;;;;10.15;100.00;96993.69;4955427;28;20198;-94
2021/05/22 01:23:01;;;;;;;3.17;2.40;;;;;;;10.16;100.00;97003.22;4956257;28;20205;-94
2021/05/22 01:25:32;;;;;;;3.57;3.20;;;;;;;9.97;100.00;97029.47;4955943;28;20250;-93
2021/05/22 01:28:01;;;;;;;2.47;2.27;;;;;;;9.81;100.00;97052.81;4955766;29;20198;-95
2021/05/22 01:30:28;;;;;;;2.90;2.70;;;;;;;9.85;100.00;97075.19;4955813;29;20197;-93
2021/05/22 01:32:55;;;;;;;2.87;2.67;;;;;;;9.99;100.00;97096.66;4955805;28;20257;-95
2021/05/22 01:35:23;;;;;;;2.70;2.50;;;;;;;9.95;100.00;97104.94;4956026;28;20198;-95
2021/05/22 01:37:50;;;;;;;2.70;2.50;;;;;;;9.79;100.00;97112.47;4955900;28;20208;-92
2021/05/22 01:40:17;;;;;;;3.83;2.70;;;;;;;9.74;100.00;97129.47;4955905;29;20209;-94
2021/05/22 01:42:45;;;;;;;3.67;2.80;;;;;;;9.88;100.00;97132.69;4955937;28;20268;-94
2021/05/22 01:45:16;;;;;;;3.00;2.80;;;;;;;9.96;100.00;97120.56;4955418;28;20318;-94
2021/05/22 01:47:45;;;;;;;2.90;2.70;;;;;;;10.04;100.00;97130.38;4955749;29;20212;-95
2021/05/22 01:50:16;;;;;;;4.00;2.97;;;;;;;9.98;100.00;97126.50;4956163;29;20205;-94
2021/05/22 01:52:46;;;;;;;2.70;2.30;;;;;;;9.82;100.00;97136.69;4955974;29;20193;-93
2021/05/22 01:55:14;;;;;;;3.27;2.77;;;;;;;9.83;100.00;97158.50;4955450;28;20220;-94
2021/05/22 01:57:42;;;;;;;3.13;2.83;;;;;;;9.86;100.00;97148.56;4955625;29;20222;-94
2021/05/22 02:00:11;;;;;;;2.80;2.60;;;;;;;9.84;100.00;97144.44;4955289;28;20217;-91
2021/05/22 02:02:47;;;;;;;2.80;2.60;;;;;;;9.81;100.00;97147.31;4956091;29;20206;-94
2021/05/22 02:05:16;;;;;;;3.07;2.87;;;;;;;9.67;100.00;97151.13;4955247;29;20209;-96
2021/05/22 02:07:46;;;;;;;3.17;2.97;;;;;;;9.52;100.00;97163.75;4955205;29;20202;-95
2021/05/22 02:10:14;;;;;;;3.33;3.03;;;;;;;9.47;100.00;97156.28;4955189;29;20201;-94
2021/05/22 02:12:42;;;;;;;4.40;4.10;;;;;;;9.48;100.00;97157.94;4955499;29;20201;-95
2021/05/22 02:15:13;;;;;;;3.87;3.57;;;;;;;9.38;100.00;97129.97;4955469;28;20693;-93
2021/05/22 02:17:41;;;;;;;3.60;3.30;;;;;;;9.58;100.00;97126.50;4955523;28;20189;-94
2021/05/22 02:20:11;;;;;;;4.60;3.73;;;;;;;9.47;100.00;97116.09;4955075;29;20694;-92
2021/05/22 02:22:42;;;;;;;4.20;3.90;;;;;;;9.32;100.00;97114.75;4954993;29;20671;-94
2021/05/22 02:25:10;;;;;;;3.80;3.50;;;;;;;9.27;100.00;97138.75;4954978;29;20264;-93
2021/05/22 02:27:37;;;;;;;2.93;2.73;;;;;;;9.33;100.00;97176.78;4955047;28;20194;-96
2021/05/22 02:30:07;;;;;;;3.00;2.80;;;;;;;9.41;100.00;97184.81;4954785;28;20202;-94
2021/05/22 02:32:37;;;;;;;3.00;2.73;;;;;;;9.56;100.00;97182.69;4954321;28;20585;-94
2021/05/22 02:35:05;;;;;;;3.33;3.10;;;;;;;9.45;100.00;97173.09;4955327;28;20245;-93
2021/05/22 02:37:34;;;;;;;10.77;8.33;;;;;;;9.40;100.00;97170.03;4954852;29;20205;-92
2021/05/22 02:40:06;;;;;;;10.73;9.63;;;;;;;9.56;100.00;97165.19;4954701;29;20198;-93
2021/05/22 02:42:33;;;;;;;5.23;4.73;;;;;;;9.52;100.00;97159.34;4955328;29;20197;-93
2021/05/22 02:45:02;;;;;;;3.13;2.83;;;;;;;9.18;100.00;97177.09;4954739;28;20617;-93
2021/05/22 02:47:30;;;;;;;4.40;4.00;;;;;;;9.26;100.00;97216.63;4954773;29;20206;-91
2021/05/22 02:50:07;;;;;;;4.07;3.77;;;;;;;9.27;100.00;97227.94;4954604;29;20264;-93
2021/05/22 02:52:35;;;;;;;3.80;3.50;;;;;;;9.26;100.00;97208.75;4954531;29;20205;-93
2021/05/22 02:55:06;;;;;;;3.43;2.90;;;;;;;9.03;100.00;97200.16;4954680;28;20675;-93
2021/05/22 02:57:33;;;;;;;4.73;3.30;;;;;;;9.08;100.00;97227.81;4954958;28;20190;-94
2021/05/22 03:00:01;;;;;;;3.10;2.80;;;;;;;9.18;100.00;97252.31;4954535;29;20282;-93
2021/05/22 03:02:28;;;;;;;3.20;3.00;;;;;;;9.02;100.00;97255.34;4954778;28;20240;-92
2021/05/22 03:04:56;;;;;;;6.70;3.10;;;;;;;8.99;100.00;97266.91;4954452;29;20221;-94
2021/05/22 03:07:24;;;;;;;3.50;3.20;;;;;;;9.05;100.00;97266.44;4954839;28;20729;-91
2021/05/22 03:09:51;;;;;;;3.53;3.30;;;;;;;8.99;100.00;97272.16;4954725;29;20208;-94
2021/05/22 03:12:21;;;;;;;4.80;3.60;;;;;;;9.06;100.00;97264.63;4955541;28;20205;-92
2021/05/22 03:14:48;;;;;;;3.53;3.30;;;;;;;9.27;100.00;97254.19;4955074;28;20546;-93
2021/05/22 03:17:15;;;;;;;3.70;3.50;;;;;;;9.21;100.00;97252.91;4954867;29;20667;-94
2021/05/22 03:19:42;;;;;;;8.03;4.17;;;;;;;9.07;100.00;97242.69;4954584;29;20205;-94
2021/05/22 03:22:09;;;;;;;3.97;3.57;;;;;;;9.11;100.00;97275.59;4954943;29;20206;-93
2021/05/22 03:24:37;;;;;;;3.80;3.37;;;;;;;8.98;100.00;97285.41;4954471;28;20221;-94
2021/05/22 03:27:04;;;;;;;4.13;2.90;;;;;;;9.01;100.00;97306.16;4954387;29;20209;-93
2021/05/22 03:29:31;;;;;;;106.83;74.10;;;;;;;8.54;100.00;97293.22;4954701;28;20206;-93
2021/05/22 03:31:58;;;;;;;31.47;23.97;;;;;;;8.51;100.00;97330.16;4954437;28;20202;-95
2021/05/22 03:34:26;;;;;;;14.23;11.27;;;;;;;8.55;100.00;97343.84;4954772;28;20194;-91
2021/05/22 03:36:53;;;;;;;9.53;5.20;;;;;;;8.67;100.00;97355.16;4954666;29;20621;-93
2021/05/22 03:39:20;;;;;;;6.53;5.93;;;;;;;8.78;100.00;97337.63;4955341;28;20265;-89
2021/05/22 03:41:47;;;;;;;5.37;3.70;;;;;;;8.78;100.00;97319.28;4954627;29;20232;-96
2021/05/22 03:44:14;;;;;;;3.37;2.93;;;;;;;8.77;100.00;97307.16;4956684;28;20283;-85
2021/05/22 03:46:41;;;;;;;2.80;2.60;;;;;;;8.91;100.00;97310.47;4958034;28;20640;-91
2021/05/22 03:49:08;;;;;;;9.13;7.80;;;;;;;8.90;100.00;97291.28;4957885;29;20256;-93
2021/05/22 03:51:35;;;;;;;25.47;18.20;;;;;;;8.91;100.00;97290.31;4957745;28;20284;-92
2021/05/22 03:54:01;;;;;;;35.43;22.13;;;;;;;8.96;100.00;97285.53;4957575;29;20244;-91
2021/05/22 03:56:28;;;;;;;23.47;13.57;;;;;;;9.11;100.00;97301.81;4957721;29;20229;-92
2021/05/22 03:58:56;;;;;;;14.53;11.87;;;;;;;9.13;100.00;97284.16;4957531;28;20222;-91
2021/05/22 04:01:23;;;;;;;7.30;6.60;;;;;;;9.17;100.00;97287.38;4957656;29;20284;-91
2021/05/22 04:03:50;;;;;;;3.73;3.43;;;;;;;9.25;100.00;97277.94;4957645;28;20202;-91
2021/05/22 04:06:17;;;;;;;5.97;2.70;;;;;;;9.27;100.00;97276.00;4957623;28;20325;-91
2021/05/22 04:08:43;;;;;;;2.60;2.40;;;;;;;9.39;100.00;97274.16;4958072;29;20227;-92
2021/05/22 04:11:10;;;;;;;5.83;2.60;;;;;;;9.53;100.00;97276.47;4957762;28;20194;-91
2021/05/22 04:13:37;;;;;;;11.57;2.60;;;;;;;9.68;100.00;97284.03;4957530;28;20219;-93
2021/05/22 04:16:06;;;;;;;2.50;2.30;;;;;;;9.76;100.00;97303.41;4957757;29;20256;-92
2021/05/22 04:18:32;;;;;;;3.23;2.77;;;;;;;9.82;100.00;97302.09;4957734;29;20206;-92
2021/05/22 04:20:59;;;;;;;3.20;2.50;;;;;;;9.81;100.00;97331.13;4957304;28;20269;-92
2021/05/22 04:23:26;;;;;;;2.33;2.20;;;;;;;9.92;100.00;97341.53;4956902;28;20201;-92
2021/05/22 04:25:53;;;;;;;2.20;2.00;;;;;;;9.87;100.00;97365.56;4957356;28;20292;-92
2021/05/22 04:28:19;;;;;;;1.93;1.80;;;;;;;10.00;100.00;97378.50;4956827;28;20209;-93
2021/05/22 04:30:46;;;;;;;1.80;1.70;;;;;;;10.03;100.00;97388.75;4957209;28;20719;-92
2021/05/22 04:33:14;;;;;;;2.87;1.70;;;;;;;10.07;100.00;97416.41;4956815;29;20281;-92
2021/05/22 04:35:41;;;;;;;1.73;1.63;;;;;;;10.06;100.00;97441.03;4956983;29;20209;-92
2021/05/22 04:38:08;;;;;;;2.17;2.07;;;;;;;10.13;100.00;97457.94;4956766;28;20198;-92
2021/05/22 04:40:35;;;;;;;4.13;2.50;;;;;;;10.09;100.00;97472.31;4956686;29;20244;-92
2021/05/22 04:43:01;;;;;;;2.40;2.20;;;;;;;10.21;100.00;97480.97;4956743;28;20300;-91
2021/05/22 04:45:28;;;;;;;2.83;2.43;;;;;;;10.26;100.00;97496.41;4956811;28;20234;-93
2021/05/22 04:47:55;;;;;;;2.53;2.33;;;;;;;10.28;100.00;97512.84;4957008;28;20616;-92
2021/05/22 04:50:25;;;;;;;3.10;2.90;;;;;;;10.33;100.00;97529.09;4956438;29;20200;-92
2021/05/22 04:52:52;;;;;;;3.70;3.40;;;;;;;10.46;100.00;97541.09;4957250;28;20190;-94
2021/05/22 04:55:19;;;;;;;4.67;4.27;;;;;;;10.54;100.00;97550.13;4956160;28;20714;-94
2021/05/22 04:57:45;;;;;;;5.07;3.70;;;;;;;10.67;100.00;97562.13;4956928;28;20202;-93
2021/05/22 05:00:29;;;;;;;4.60;4.20;;;;;;;10.79;100.00;97564.69;4965517;28;20627;-93
2021/05/22 05:02:56;;;;;;;4.37;3.57;;;;;;;10.87;100.00;97578.03;4959068;28;20205;-93
2021/05/22 05:05:24;;;;;;;3.23;2.93;;;;;;;11.11;100.00;97614.59;4956413;29;20698;-93
2021/05/22 05:07:51;;;;;;;3.60;3.03;;;;;;;11.17;100.00;97635.16;4956666;28;20206;-93
2021/05/22 05:10:18;;;;;;;2.97;2.77;;;;;;;11.35;100.00;97645.91;4956750;28;20260;-93
2021/05/22 05:12:45;;;;;;;3.07;2.73;;;;;;;11.36;100.00;97629.16;4956260;28;20201;-94
2021/05/22 05:15:14;;;;;;;3.97;2.83;;;;;;;11.34;100.00;97626.66;4956436;29;20194;-94
2021/05/22 05:17:41;;;;;;;3.30;2.80;;;;;;;11.53;100.00;97652.25;4956681;29;20193;-93
2021/05/22 05:20:10;;;;;;;3.80;2.70;;;;;;;11.58;100.00;97641.34;4956322;29;20206;-93
2021/05/22 05:22:38;;;;;;;2.47;2.30;;;;;;;11.74;100.00;97661.91;4956388;28;20257;-93
2021/05/22 05:25:06;;;;;;;2.70;2.50;;;;;;;11.86;100.00;97676.72;4956491;28;20229;-94
2021/05/22 05:27:33;;;;;;;2.87;2.67;;;;;;;12.13;100.00;97705.94;4956012;28;20755;-88
2021/05/22 05:30:00;;;;;;;2.87;2.67;;;;;;;12.20;100.00;97715.97;4955323;29;20205;-88
2021/05/22 05:32:26;;;;;;;2.53;2.33;;;;;;;12.23;100.00;97724.44;4955780;28;20614;-88
2021/05/22 05:34:53;;;;;;;2.63;2.43;;;;;;;12.48;100.00;97636.09;4956248;28;20205;-94
2021/05/22 05:37:22;;;;;;;3.70;3.40;;;;;;;12.64;100.00;97542.41;4956723;28;20212;-93
2021/05/22 05:39:49;;;;;;;2.33;2.17;;;;;;;12.79;100.00;97472.41;4956588;28;20206;-93
2021/05/22 05:42:16;;;;;;;1.90;1.80;;;;;;;13.02;100.00;97439.44;4955857;29;20205;-94
2021/05/22 05:44:43;;;;;;;2.30;2.10;;;;;;;13.13;100.00;97364.50;4955553;28;20287;-94
2021/05/22 05:47:10;;;;;;;1.90;1.80;;;;;;;13.20;100.00;97240.69;4955551;28;20338;-94
2021/05/22 05:49:37;;;;;;;2.00;1.90;;;;;;;13.40;100.00;97147.13;4955767;28;20202;-93
2021/05/22 05:52:04;;;;;;;3.10;2.07;;;;;;;13.46;100.00;97071.75;4955710;28;20198;-93
2021/05/22 05:54:31;;;;;;;2.47;1.87;;;;;;;13.53;100.00;96986.44;4955339;28;20201;-94
2021/05/22 05:56:59;;;;;;;1.70;1.60;;;;;;;13.49;100.00;96924.38;4955401;29;20205;-94
2021/05/22 05:59:26;;;;;;;1.93;1.83;;;;;;;13.69;100.00;96971.66;4955286;29;20202;-94
2021/05/22 06:01:53;;;;;;;1.63;1.53;;;;;;;13.92;100.00;96993.00;4955265;28;20248;-93
2021/05/22 06:04:20;;;;;;;1.70;1.60;;;;;;;14.08;100.00;96976.34;4955630;29;20210;-94
2021/05/22 06:06:47;;;;;;;2.17;1.97;;;;;;;14.04;100.00;96949.41;4955385;28;20233;-94
2021/05/22 06:12:24;;;;;;;4.00;1.60;;;;;;;14.23;100.00;96784.34;5481904;23;20218;-96
2021/05/22 06:17:36;;;;;;;1.20;1.20;;;;;;;14.55;100.00;96809.94;5037167;23;20300;-94
2021/05/22 06:20:10;;;;;;;2.43;1.77;;;;;;;14.81;100.00;96804.38;4954464;29;20257;-93
2021/05/22 06:22:42;;;;;;;1.80;1.60;;;;;;;14.84;100.00;96796.09;4955372;28;20237;-94
2021/05/22 06:25:12;;;;;;;2.10;2.00;;;;;;;14.86;100.00;96780.03;4950725;28;20237;-94
2021/05/22 06:27:53;;;;;;;1.70;1.60;;;;;;;15.10;100.00;96760.53;4936235;29;20186;-95
2021/05/22 06:30:26;;;;;;;3.77;1.60;;;;;;;14.88;100.00;96781.50;4945982;28;20209;-94
2021/05/22 06:33:03;;;;;;;1.70;1.60;;;;;;;15.01;100.00;96720.06;4954602;28;20205;-94
2021/05/22 06:35:31;;;;;;;1.60;1.50;;;;;;;15.38;100.00;96714.03;4954554;28;20285;-89
2021/05/22 06:38:22;;;;;;;3.63;1.73;;;;;;;15.55;100.00;96674.13;4953540;28;20273;-94
2021/05/22 06:40:51;;;;;;;1.40;1.30;;;;;;;15.82;100.00;96620.56;4954623;29;20269;-89
2021/05/22 06:43:18;;;;;;;2.00;1.20;;;;;;;15.50;100.00;96555.47;4954926;28;20253;-95
2021/05/22 06:45:56;;;;;;;1.47;1.37;;;;;;;15.36;100.00;96541.22;4954693;29;20276;-96
2021/05/22 07:06:37;;;;;;;2.93;2.63;;;;;;;16.01;100.00;96573.31;5591183;23;20238;-95
2021/05/22 07:11:44;;;;;;;1.80;1.70;;;;;;;16.97;100.00;96565.97;4946714;26;20235;-94
2021/05/22 07:16:46;;;;;;;1.50;1.40;;;;;;;17.86;100.00;96425.28;4964061;28;20217;-94
2021/05/22 07:19:13;;;;;;;1.70;1.60;;;;;;;17.83;100.00;96391.94;4964603;28;20236;-96
2021/05/22 07:21:51;;;;;;;;;;;;;;;;;;;;;
2021/05/22 07:26:58;;;;;;;1.40;1.30;;;;;;;18.73;100.00;96365.81;5329116;23;20229;-96
2021/05/22 07:29:26;;;;;;;1.70;1.60;;;;;;;18.82;100.00;96424.19;4963880;29;20644;-96
2021/05/22 07:31:53;;;;;;;2.50;2.30;;;;;;;18.88;100.00;96476.63;4958113;28;20200;-96
2021/05/22 07:34:20;;;;;;;2.37;1.90;;;;;;;19.01;100.00;96488.06;4958323;29;20205;-96
2021/05/22 07:36:48;;;;;;;3.93;2.00;;;;;;;18.86;100.00;96497.31;4958745;28;20226;-96
2021/05/22 07:39:15;;;;;;;2.43;2.20;;;;;;;19.35;100.00;96501.34;4960454;28;20194;-96
2021/05/22 07:41:42;;;;;;;1.97;1.87;;;;;;;19.21;100.00;96450.75;4958746;28;20198;-95
2021/05/22 07:44:09;;;;;;;4.20;1.73;;;;;;;19.31;100.00;96438.84;4958686;28;20233;-96
2021/05/22 07:46:37;;;;;;;4.63;2.30;;;;;;;19.79;100.00;96409.97;4962114;28;20232;-96
2021/05/22 07:49:05;;;;;;;3.03;1.93;;;;;;;20.12;100.00;96376.94;4964536;28;20657;-96
2021/05/22 07:51:32;;;;;;;2.90;2.20;;;;;;;20.29;100.00;96334.53;4971016;28;20210;-96
2021/05/22 07:54:01;;;;;;;3.60;2.50;;;;;;;20.66;100.00;96378.19;4973425;28;20206;-96
2021/05/22 07:56:28;;;;;;;2.47;2.27;;;;;;;20.39;100.00;96348.19;4971945;28;20198;-96
2021/05/22 07:58:55;;;;;;;3.60;3.30;;;;;;;20.59;100.00;96354.22;4962263;28;20206;-96
2021/05/22 08:01:22;;;;;;;4.87;2.73;;;;;;;20.08;100.00;96373.06;4965932;28;20198;-95
2021/05/22 08:03:49;;;;;;;3.03;2.73;;;;;;;19.86;100.00;96340.59;4960660;28;20205;-95
2021/05/22 08:06:18;;;;;;;2.60;2.40;;;;;;;20.14;100.00;96306.31;4959047;29;20252;-96
2021/05/22 08:08:47;;;;;;;3.53;3.23;;;;;;;20.84;100.00;96330.13;4957868;28;20193;-95
2021/05/22 08:11:15;;;;;;;4.67;3.60;;;;;;;20.71;100.00;96308.09;4958207;29;20261;-95
2021/05/22 08:13:42;;;;;;;3.77;3.33;;;;;;;20.57;100.00;96315.41;4958796;28;20668;-96
2021/05/22 08:16:10;;;;;;;5.60;3.90;;;;;;;20.34;100.00;96313.34;4961040;28;20229;-95
2021/05/22 08:18:37;;;;;;;5.90;4.23;;;;;;;20.52;100.00;96323.28;4958044;29;20202;-96
2021/05/22 08:21:05;;;;;;;4.43;3.80;;;;;;;20.11;100.00;96306.75;4958182;29;20206;-95
2021/05/22 08:23:33;;;;;;;6.57;4.30;;;;;;;20.45;100.00;96306.47;4958680;28;20244;-96
2021/05/22 08:25:59;;;;;;;6.03;4.70;;;;;;;20.42;100.00;96308.53;4958684;28;20309;-96
2021/05/22 08:28:29;;;;;;;3.93;3.63;;;;;;;20.61;100.00;96296.09;4958148;28;20648;-96
2021/05/22 08:30:58;;;;;;;4.07;3.73;;;;;;;20.67;100.00;96294.38;4957027;28;20295;-96
2021/05/22 08:33:25;;;;;;;4.70;4.20;;;;;;;20.61;100.00;96289.94;4970380;29;20726;-96
2021/05/22 08:35:52;;;;;;;7.50;3.97;;;;;;;20.50;100.00;96307.47;5039311;23;20241;-96
2021/05/22 08:38:19;;;;;;;4.70;4.10;;;;;;;20.47;100.00;96286.53;4963118;28;20201;-96
2021/05/22 08:40:46;;;;;;;8.00;4.47;;;;;;;20.44;100.00;96281.66;4962753;28;20201;-96
2021/05/22 08:43:13;;;;;;;4.40;4.10;;;;;;;20.62;100.00;96265.66;4957947;28;20643;-96
2021/05/22 08:45:45;;;;;;;4.40;3.40;;;;;;;20.81;100.00;96244.28;4963859;29;20230;-96
2021/05/22 08:48:14;;;;;;;3.77;3.47;;;;;;;21.36;100.00;96279.81;4969676;28;20217;-96
2021/05/22 08:50:46;;;;;;;3.70;3.40;;;;;;;20.24;100.00;96257.00;4969790;28;20198;-96
2021/05/22 08:53:13;;;;;;;3.40;3.10;;;;;;;20.47;100.00;96265.19;4967525;29;20186;-96
2021/05/22 08:55:41;;;;;;;3.20;3.00;;;;;;;21.01;100.00;96274.25;4971899;28;20304;-96
2021/05/22 08:58:08;;;;;;;3.63;2.83;;;;;;;20.97;100.00;96246.38;4972192;28;20205;-96
2021/05/22 09:00:39;;;;;;;2.97;2.73;;;;;;;20.69;100.00;96236.22;4966146;28;20221;-95
2021/05/22 09:03:16;;;;;;;3.03;2.83;;;;;;;20.95;100.00;96220.91;4967560;29;20224;-92
2021/05/22 09:05:44;;;;;;;4.90;4.50;;;;;;;20.66;100.00;96250.81;4964386;29;20307;-94
2021/05/22 09:08:18;;;;;;;3.77;3.47;;;;;;;21.11;100.00;96253.16;4965755;28;20209;-96
2021/05/22 09:10:47;;;;;;;3.93;3.10;;;;;;;21.36;100.00;96244.22;4969189;29;20217;-96
2021/05/22 09:13:24;;;;;;;2.70;2.50;;;;;;;21.17;100.00;96213.22;4970695;28;20210;-95
2021/05/22 09:15:57;;;;;;;3.50;3.30;;;;;;;21.62;100.00;96215.50;5275330;23;20212;-96
2021/05/22 09:18:25;;;;;;;3.77;2.63;;;;;;;21.06;100.00;96154.16;4958338;29;20237;-96
2021/05/22 09:20:54;;;;;;;3.53;2.80;;;;;;;21.31;100.00;96174.56;5076637;23;20617;-96
2021/05/22 09:23:23;;;;;;;4.30;2.87;;;;;;;21.41;100.00;96133.97;4962013;28;20205;-96
2021/05/22 09:25:51;;;;;;;2.90;2.70;;;;;;;21.63;100.00;96121.66;4958663;28;20221;-96
2021/05/22 09:28:20;;;;;;;2.80;2.60;;;;;;;21.77;100.00;96116.88;4958770;29;20202;-96
2021/05/22 09:30:49;;;;;;;3.27;2.90;;;;;;;21.78;100.00;96105.94;4962167;28;20264;-96
2021/05/22 09:33:22;;;;;;;3.80;3.00;;;;;;;21.75;100.00;96063.63;4962558;28;20284;-96
2021/05/22 09:35:55;;;;;;;3.93;3.03;;;;;;;21.86;100.00;96070.00;4962691;28;20205;-96
2021/05/22 09:38:34;;;;;;;3.10;2.80;;;;;;;21.75;100.00;96087.69;4960122;28;20219;-95
2021/05/22 09:41:01;;;;;;;3.20;3.00;;;;;;;21.44;100.00;96096.03;4955822;28;20194;-96
2021/05/22 09:43:27;;;;;;;5.50;2.93;;;;;;;21.50;100.00;96071.88;4955978;29;20205;-95
2021/05/22 09:45:54;;;;;;;2.97;2.77;;;;;;;21.42;100.00;96084.78;4956406;28;20224;-96
2021/05/22 09:48:24;;;;;;;2.80;2.60;;;;;;;21.22;100.00;96077.03;4961533;28;20205;-96
2021/05/22 09:50:53;;;;;;;3.23;3.03;;;;;;;21.76;100.00;96100.03;4962695;28;20639;-96
2021/05/22 09:53:49;;;;;;;2.87;2.50;;;;;;;21.77;100.00;96058.84;4964481;28;20337;-92
2021/05/22 09:56:18;;;;;;;2.37;2.17;;;;;;;21.60;100.00;96023.97;4957902;28;20206;-95
2021/05/22 09:58:47;;;;;;;4.47;1.93;;;;;;;21.51;100.00;96009.34;4956623;28;20210;-95
2021/05/22 10:01:22;;;;;;;2.47;2.23;;;;;;;21.48;100.00;96014.34;4958248;28;20202;-96
2021/05/22 10:03:52;;;;;;;2.23;2.13;;;;;;;21.21;100.00;96021.97;4958130;28;20200;-96
2021/05/22 10:06:22;;;;;;;2.50;2.30;;;;;;;21.05;100.00;96036.81;4957144;28;20228;-94
2021/05/22 10:08:49;;;;;;;2.83;2.63;;;;;;;21.28;100.00;96047.53;4959202;29;20710;-96
2021/05/22 10:11:16;;;;;;;3.50;2.73;;;;;;;21.09;100.00;96024.63;4956493;28;20560;-95
2021/05/22 10:13:43;;;;;;;12.87;3.27;;;;;;;20.88;100.00;96047.34;4955338;28;20198;-95
2021/05/22 10:16:10;;;;;;;2.17;1.97;;;;;;;20.83;100.00;96018.66;4956478;28;20209;-94
2021/05/22 10:18:38;;;;;;;2.60;2.50;;;;;;;20.62;100.00;96020.00;4958191;29;20190;-96
2021/05/22 10:21:06;;;;;;;2.50;2.30;;;;;;;20.65;100.00;96018.75;4956899;28;20230;-94
2021/05/22 10:23:35;;;;;;;2.57;2.37;;;;;;;20.66;100.00;96034.53;4955954;28;20205;-96
2021/05/22 10:26:02;;;;;;;2.67;2.47;;;;;;;20.42;100.00;96030.91;4960190;28;20225;-96
2021/05/22 10:28:29;;;;;;;2.33;2.23;;;;;;;20.40;100.00;96030.34;4955975;28;20667;-95
2021/05/22 10:30:57;;;;;;;2.40;2.30;;;;;;;20.45;100.00;96032.34;4957486;28;20678;-95
2021/05/22 10:33:25;;;;;;;1.97;1.77;;;;;;;20.11;100.00;96023.13;4955586;28;20198;-94
2021/05/22 10:35:54;;;;;;;2.60;2.40;;;;;;;20.15;100.00;96027.78;4961600;28;20202;-96
2021/05/22 10:38:42;;;;;;;2.70;2.50;;;;;;;20.23;100.00;96045.34;4960363;28;20201;-96
2021/05/22 10:41:12;;;;;;;4.20;2.37;;;;;;;20.27;100.00;96014.50;4962534;28;20314;-96
2021/05/22 10:57:55;;;;;;;3.40;2.90;;;;;;;21.06;100.00;95953.75;5376304;23;20281;-96
2021/05/22 11:00:25;;;;;;;3.37;3.07;;;;;;;21.33;100.00;95939.91;4949527;29;20297;-96
2021/05/22 11:02:54;;;;;;;3.20;2.83;;;;;;;21.62;100.00;95929.34;5049814;23;20237;-96
2021/05/22 11:16:11;;;;;;;2.20;2.10;;;;;;;22.05;100.00;95876.13;5543150;23;20264;-96
2021/05/22 11:21:22;;;;;;;2.10;1.90;;;;;;;22.07;100.00;95867.88;5054179;23;20237;-96
2021/05/22 11:29:04;;;;;;;2.13;1.93;;;;;;;22.11;100.00;95870.88;5380868;23;20281;-96
2021/05/22 11:31:35;;;;;;;3.00;2.00;;;;;;;21.79;100.00;95868.69;5352567;23;20204;-96
2021/05/22 11:34:32;;;;;;;2.17;1.83;;;;;;;21.93;100.00;95861.19;5321220;23;20232;-88
2021/05/22 11:37:32;;;;;;;1.90;1.80;;;;;;;22.38;100.00;95839.78;4958084;28;20201;-88
2021/05/22 11:39:59;;;;;;;4.60;1.80;;;;;;;22.19;100.00;95841.06;4902499;29;20284;-94
2021/05/22 11:42:33;;;;;;;1.70;1.60;;;;;;;22.23;100.00;95831.47;4899544;29;20201;-96
2021/05/22 11:45:01;;;;;;;1.80;1.70;;;;;;;22.86;100.00;95837.53;4899091;29;20207;-96
2021/05/22 11:47:33;;;;;;;2.20;2.10;;;;;;;22.72;100.00;95829.03;4903384;29;20232;-96
2021/05/22 11:50:01;;;;;;;2.07;1.93;;;;;;;22.91;100.00;95825.03;4900921;29;20215;-95
2021/05/22 11:52:30;;;;;;;6.80;2.50;;;;;;;22.54;100.00;95822.88;4899588;29;20236;-95
2021/05/22 11:54:57;;;;;;;3.03;2.03;;;;;;;22.44;100.00;95816.56;4899110;29;20211;-95
2021/05/22 11:57:29;;;;;;;1.93;1.83;;;;;;;23.28;100.00;95811.06;4898995;29;20204;-95
2021/05/22 11:59:56;;;;;;;1.50;1.50;;;;;;;23.25;100.00;95798.97;4902328;29;20303;-94
2021/05/22 12:02:36;;;;;;;2.43;2.23;;;;;;;23.16;100.00;95786.25;4899473;29;20200;-94
2021/05/22 12:05:05;;;;;;;2.07;1.87;;;;;;;22.97;100.00;95783.88;4901802;29;20200;-94
2021/05/22 12:07:47;;;;;;;3.03;2.00;;;;;;;23.38;100.00;95767.44;4898719;29;20688;-95
2021/05/22 12:10:15;;;;;;;2.17;2.07;;;;;;;23.49;100.00;95751.22;4914434;29;20205;-94
2021/05/22 12:15:24;;;;;;;2.03;1.93;;;;;;;23.22;100.00;95740.47;4959747;29;20202;-95
2021/05/22 12:17:54;;;;;;;2.97;1.70;;;;;;;23.58;100.00;95740.03;4958322;28;20202;-96
2021/05/22 12:20:23;;;;;;;1.73;1.63;;;;;;;23.38;100.00;95743.31;4957462;29;20608;-95
2021/05/22 12:22:50;;;;;;;3.20;1.97;;;;;;;23.15;100.00;95737.19;4959892;29;20553;-96
2021/05/22 12:25:18;;;;;;;2.50;1.97;;;;;;;23.26;100.00;95738.09;4958911;28;20209;-95
2021/05/22 12:27:48;;;;;;;1.80;1.70;;;;;;;22.81;100.00;95733.78;4959857;29;20281;-96
2021/05/22 12:30:17;;;;;;;3.57;1.77;;;;;;;23.38;100.00;95714.66;4958221;29;20194;-95
2021/05/22 12:32:44;;;;;;;2.83;1.90;;;;;;;22.98;100.00;95729.22;4958800;28;20198;-93
2021/05/22 12:35:13;;;;;;;1.77;1.67;;;;;;;23.12;100.00;95723.47;4959144;29;20233;-90
2021/05/22 12:37:40;;;;;;;1.60;1.50;;;;;;;22.90;100.00;95724.25;4959475;28;20202;-92
2021/05/22 12:40:10;;;;;;;1.70;1.60;;;;;;;23.17;100.00;95715.47;4956717;29;20209;-92
2021/05/22 12:42:38;;;;;;;1.50;1.40;;;;;;;22.97;100.00;95727.59;4956783;28;20221;-93
2021/05/22 12:45:17;;;;;;;1.47;1.37;;;;;;;22.63;100.00;95734.09;4956643;29;20208;-92